createdAt,value
2023-02-11T00:01:10.576Z,-3.21
2023-02-11T00:03:38.811Z,-3.01
2023-02-11T00:06:09.381Z,-3.22
2023-02-11T00:08:37.025Z,-3.39
2023-02-11T00:11:04.634Z,-3.35
2023-02-11T00:13:31.719Z,-3.12
2023-02-11T00:15:58.899Z,-3.08
2023-02-11T00:18:26.062Z,-3.34
2023-02-11T00:20:53.675Z,-3.45
2023-02-11T00:23:20.772Z,-3.27
2023-02-11T00:25:47.856Z,-3.34
2023-02-11T00:28:15.020Z,-3.56
2023-02-11T00:30:42.299Z,-3.42
2023-02-11T00:33:09.530Z,-3.24
2023-02-11T00:35:38.579Z,-3.49
2023-02-11T00:38:08.105Z,-3.65
2023-02-11T00:40:35.223Z,-3.52
2023-02-11T00:43:03.959Z,-3.54
2023-02-11T00:45:31.228Z,-3.48
2023-02-11T00:47:58.358Z,-3.58
2023-02-11T00:50:25.565Z,-3.65
2023-02-11T00:52:52.682Z,-3.63
2023-02-11T00:55:19.768Z,-3.69
2023-02-11T00:57:46.866Z,-3.73
2023-02-11T01:00:16.933Z,-3.85
2023-02-11T01:02:45.177Z,-3.88
2023-02-11T01:05:12.357Z,-3.90
2023-02-11T01:07:39.480Z,-3.95
2023-02-11T01:10:06.668Z,-3.83
2023-02-11T01:12:36.252Z,-3.84
2023-02-11T01:15:04.678Z,-3.88
2023-02-11T01:17:34.673Z,-4.02
2023-02-11T01:20:07.736Z,-3.96
2023-02-11T01:22:37.368Z,-3.92
2023-02-11T01:25:04.699Z,-3.94
2023-02-11T01:27:32.024Z,-4.02
2023-02-11T01:29:59.166Z,-4.04
2023-02-11T01:32:26.308Z,-4.07
2023-02-11T01:34:54.528Z,-4.08
2023-02-11T01:37:21.634Z,-4.17
2023-02-11T01:39:48.865Z,-4.10
2023-02-11T01:42:18.450Z,-4.03
2023-02-11T01:44:45.645Z,-4.02
2023-02-11T01:47:12.736Z,-3.96
2023-02-11T01:49:44.762Z,-4.04
2023-02-11T01:52:20.148Z,-4.11
2023-02-11T01:55:11.015Z,-4.10
2023-02-11T01:57:41.139Z,-4.00
2023-02-11T02:00:35.589Z,-3.86
2023-02-11T02:03:22.505Z,-3.65
2023-02-11T02:06:06.396Z,-3.54
2023-02-11T02:08:46.844Z,-3.70
2023-02-11T02:11:14.020Z,-3.88
2023-02-11T02:13:41.650Z,-3.83
2023-02-11T02:16:14.144Z,-3.79
2023-02-11T02:18:41.258Z,-3.87
2023-02-11T02:22:04.732Z,-3.91
2023-02-11T02:24:50.374Z,-3.87
2023-02-11T02:27:48.692Z,-3.87
2023-02-11T02:30:37.743Z,-3.57
2023-02-11T02:33:26.515Z,-3.45
2023-02-11T02:35:56.366Z,-3.60
2023-02-11T02:38:30.494Z,-3.66
2023-02-11T02:41:15.564Z,-3.75
2023-02-11T02:43:49.756Z,-3.71
2023-02-11T02:46:24.145Z,-3.89
2023-02-11T02:48:53.185Z,-4.00
2023-02-11T02:51:35.586Z,-3.97
2023-02-11T02:54:30.651Z,-4.05
2023-02-11T02:57:16.217Z,-4.03
2023-02-11T02:59:55.531Z,-4.00
2023-02-11T03:02:33.857Z,-4.08
2023-02-11T03:05:31.233Z,-3.98
2023-02-11T03:08:09.156Z,-4.09
2023-02-11T03:10:45.314Z,-4.10
2023-02-11T03:13:16.962Z,-4.11
2023-02-11T03:15:57.166Z,-3.91
2023-02-11T03:18:27.554Z,-3.95
2023-02-11T03:20:56.813Z,-3.99
2023-02-11T03:23:29.496Z,-3.99
2023-02-11T03:26:02.767Z,-3.92
2023-02-11T03:28:35.588Z,-3.98
2023-02-11T03:31:27.903Z,-4.02
2023-02-11T03:34:10.256Z,-4.16
2023-02-11T03:36:59.817Z,-4.17
2023-02-11T03:39:35.915Z,-4.33
2023-02-11T03:42:05.844Z,-4.43
2023-02-11T03:44:40.043Z,-4.44
2023-02-11T03:47:10.142Z,-4.44
2023-02-11T03:49:39.781Z,-4.33
2023-02-11T03:52:11.201Z,-4.34
2023-02-11T03:54:42.098Z,-4.44
2023-02-11T03:57:09.243Z,-4.46
2023-02-11T03:59:52.693Z,-4.53
2023-02-11T04:02:20.824Z,-4.46
2023-02-11T04:04:48.033Z,-4.50
2023-02-11T04:07:15.151Z,-4.42
2023-02-11T04:09:42.250Z,-4.49
2023-02-11T04:12:09.368Z,-4.55
2023-02-11T04:14:36.634Z,-4.59
2023-02-11T04:17:04.148Z,-4.65
2023-02-11T04:19:31.258Z,-4.66
2023-02-11T04:21:58.470Z,-4.67
2023-02-11T04:24:25.625Z,-4.67
2023-02-11T04:26:52.796Z,-4.81
2023-02-11T04:29:19.991Z,-4.84
2023-02-11T04:31:47.574Z,-4.71
2023-02-11T04:34:14.982Z,-4.66
2023-02-11T04:36:42.070Z,-4.72
2023-02-11T04:39:09.365Z,-4.77
2023-02-11T04:41:36.437Z,-4.69
2023-02-11T04:44:04.087Z,-4.74
2023-02-11T04:46:31.225Z,-4.69
2023-02-11T04:48:58.332Z,-4.62
2023-02-11T04:51:25.922Z,-4.55
2023-02-11T04:53:53.078Z,-4.50
2023-02-11T04:56:20.250Z,-4.45
2023-02-11T04:58:47.378Z,-4.58
2023-02-11T05:01:16.181Z,-4.49
2023-02-11T05:03:43.706Z,-4.52
2023-02-11T05:06:11.711Z,-4.64
2023-02-11T05:08:39.157Z,-4.80
2023-02-11T05:11:07.508Z,-4.75
2023-02-11T05:13:34.698Z,-4.59
2023-02-11T05:16:01.846Z,-4.46
2023-02-11T05:18:29.532Z,-4.61
2023-02-11T05:20:56.783Z,-4.78
2023-02-11T05:23:23.870Z,-4.93
2023-02-11T05:25:51.229Z,-5.02
2023-02-11T05:28:19.056Z,-4.97
2023-02-11T05:30:46.174Z,-4.94
2023-02-11T05:33:13.300Z,-4.94
2023-02-11T05:35:40.363Z,-4.90
2023-02-11T05:38:07.432Z,-4.85
2023-02-11T05:40:34.527Z,-4.89
2023-02-11T05:43:01.748Z,-4.75
2023-02-11T05:45:29.194Z,-4.71
2023-02-11T05:47:57.421Z,-4.70
2023-02-11T05:50:24.605Z,-4.64
2023-02-11T05:52:53.380Z,-4.67
2023-02-11T05:55:20.546Z,-4.69
2023-02-11T05:57:47.719Z,-4.72
2023-02-11T06:00:15.241Z,-4.76
2023-02-11T06:02:42.701Z,-4.72
2023-02-11T06:05:09.942Z,-4.49
2023-02-11T06:07:37.129Z,-4.47
2023-02-11T06:10:04.550Z,-4.35
2023-02-11T06:12:31.624Z,-4.31
2023-02-11T06:14:58.702Z,-4.42
2023-02-11T06:17:25.770Z,-4.48
2023-02-11T06:19:52.824Z,-4.62
2023-02-11T06:22:19.908Z,-4.66
2023-02-11T06:25:00.736Z,-4.77
2023-02-11T06:27:29.148Z,-4.86
2023-02-11T06:29:56.302Z,-4.93
2023-02-11T06:32:43.403Z,-4.78
2023-02-11T06:35:12.065Z,-4.88
2023-02-11T06:37:40.888Z,-4.84
2023-02-11T06:40:09.572Z,-4.82
2023-02-11T06:42:38.698Z,-4.76
2023-02-11T06:45:08.935Z,-4.78
2023-02-11T06:47:36.931Z,-4.71
2023-02-11T06:50:04.442Z,-4.56
2023-02-11T06:52:32.182Z,-4.62
2023-02-11T06:54:59.401Z,-4.59
2023-02-11T06:57:26.468Z,-4.58
2023-02-11T06:59:53.579Z,-4.48
2023-02-11T07:02:21.229Z,-4.27
2023-02-11T07:04:49.367Z,-4.13
2023-02-11T07:07:16.493Z,-4.01
2023-02-11T07:09:43.625Z,-3.92
2023-02-11T07:12:10.765Z,-3.84
2023-02-11T07:14:37.948Z,-3.70
2023-02-11T07:17:05.194Z,-3.61
2023-02-11T07:19:32.298Z,-3.45
2023-02-11T07:21:59.391Z,-3.09
2023-02-11T07:24:26.686Z,-2.85
2023-02-11T07:26:54.068Z,-2.64
2023-02-11T07:29:21.563Z,-2.66
2023-02-11T07:31:48.846Z,-2.54
2023-02-11T07:34:16.120Z,-2.33
2023-02-11T07:36:45.017Z,-2.17
2023-02-11T07:39:12.460Z,-2.01
2023-02-11T07:41:39.602Z,-1.92
2023-02-11T07:44:06.960Z,-1.73
2023-02-11T07:46:35.641Z,-1.54
2023-02-11T07:49:03.180Z,-1.23
2023-02-11T07:51:31.381Z,-1.12
2023-02-11T07:53:59.797Z,-1.00
2023-02-11T07:56:28.255Z,-0.86
2023-02-11T07:58:56.849Z,-0.75
2023-02-11T08:01:28.205Z,-0.63
2023-02-11T08:03:56.970Z,-0.44
2023-02-11T08:06:27.340Z,-0.24
2023-02-11T08:08:54.481Z,-0.03
2023-02-11T08:11:26.627Z,0.10
2023-02-11T08:13:54.543Z,0.29
2023-02-11T08:16:29.808Z,0.55
2023-02-11T08:19:00.477Z,0.77
2023-02-11T08:21:28.115Z,0.98
2023-02-11T08:23:55.454Z,1.13
2023-02-11T08:26:26.535Z,1.24
2023-02-11T08:28:55.082Z,1.39
2023-02-11T08:31:27.615Z,1.57
2023-02-11T08:33:57.875Z,1.75
2023-02-11T08:36:29.015Z,1.90
2023-02-11T08:39:16.081Z,2.06
2023-02-11T08:41:46.836Z,2.09
2023-02-11T08:44:14.030Z,2.27
2023-02-11T08:46:41.123Z,2.58
2023-02-11T08:49:09.034Z,2.72
2023-02-11T08:51:36.145Z,3.04
2023-02-11T08:54:03.453Z,3.10
2023-02-11T08:56:32.348Z,3.04
2023-02-11T08:58:59.438Z,3.30
2023-02-11T09:01:31.156Z,3.58
2023-02-11T09:03:58.779Z,3.92
2023-02-11T09:06:26.751Z,3.94
2023-02-11T09:08:57.231Z,3.94
2023-02-11T09:11:30.828Z,4.04
2023-02-11T09:13:59.575Z,4.36
2023-02-11T09:16:30.000Z,4.46
2023-02-11T09:18:58.911Z,4.54
2023-02-11T09:21:26.442Z,4.74
2023-02-11T09:23:54.344Z,4.90
2023-02-11T09:26:29.449Z,4.97
2023-02-11T09:28:57.199Z,5.08
2023-02-11T09:31:26.673Z,5.10
2023-02-11T09:33:57.133Z,5.14
2023-02-11T09:36:33.925Z,5.19
2023-02-11T09:39:02.342Z,5.31
2023-02-11T09:42:01.584Z,5.33
2023-02-11T09:44:35.429Z,5.48
2023-02-11T09:47:22.668Z,5.57
2023-02-11T09:50:12.349Z,5.62
2023-02-11T09:53:13.242Z,5.73
2023-02-11T09:55:44.843Z,5.74
2023-02-11T09:58:19.700Z,5.86
2023-02-11T10:01:10.245Z,5.92
2023-02-11T10:04:14.062Z,5.88
2023-02-11T10:06:54.276Z,5.49
2023-02-11T10:09:47.361Z,5.63
2023-02-11T10:12:32.692Z,5.96
2023-02-11T10:15:08.564Z,5.97
2023-02-11T10:17:49.634Z,6.18
2023-02-11T10:20:17.208Z,6.28
2023-02-11T10:22:54.754Z,6.60
2023-02-11T10:25:26.051Z,6.94
2023-02-11T10:27:57.790Z,6.89
2023-02-11T10:30:32.992Z,6.70
2023-02-11T10:33:15.064Z,6.89
2023-02-11T10:35:43.820Z,7.05
2023-02-11T10:38:11.494Z,7.00
2023-02-11T10:40:38.741Z,7.19
2023-02-11T10:43:13.412Z,7.24
2023-02-11T10:45:45.095Z,7.29
2023-02-11T10:48:41.492Z,7.25
2023-02-11T10:51:28.371Z,7.59
2023-02-11T10:54:04.587Z,7.76
2023-02-11T10:56:37.044Z,7.57
2023-02-11T10:59:24.335Z,7.48
2023-02-11T11:01:56.225Z,7.73
2023-02-11T11:04:38.263Z,7.92
2023-02-11T11:07:17.915Z,8.10
2023-02-11T11:09:52.715Z,8.15
2023-02-11T11:12:45.965Z,8.36
2023-02-11T11:15:23.483Z,8.55
2023-02-11T11:18:22.512Z,8.71
2023-02-11T11:21:17.952Z,8.71
2023-02-11T11:23:52.642Z,8.93
2023-02-11T11:26:20.264Z,9.04
2023-02-11T11:28:55.370Z,9.35
2023-02-11T11:31:30.240Z,9.56
2023-02-11T11:34:00.503Z,9.64
2023-02-11T11:36:37.256Z,9.74
2023-02-11T11:39:19.585Z,9.80
2023-02-11T11:41:56.482Z,10.12
2023-02-11T11:44:32.594Z,10.45
2023-02-11T11:47:11.574Z,10.21
2023-02-11T11:49:47.530Z,10.25
2023-02-11T11:52:46.332Z,10.59
2023-02-11T11:55:20.590Z,10.65
2023-02-11T11:57:48.956Z,10.37
2023-02-11T12:00:37.624Z,10.35
2023-02-11T12:03:27.859Z,10.26
2023-02-11T12:06:11.606Z,9.92
2023-02-11T12:08:57.053Z,9.75
2023-02-11T12:11:29.957Z,9.83
2023-02-11T12:14:18.080Z,9.58
2023-02-11T12:17:01.504Z,9.61
2023-02-11T12:19:59.268Z,9.60
2023-02-11T12:22:58.301Z,9.56
2023-02-11T12:25:27.481Z,9.48
2023-02-11T12:28:01.531Z,9.26
2023-02-11T12:30:40.538Z,9.36
2023-02-11T12:33:22.646Z,9.29
2023-02-11T12:35:59.173Z,9.14
2023-02-11T12:38:42.060Z,9.11
2023-02-11T12:41:49.242Z,9.00
2023-02-11T12:44:40.630Z,9.18
2023-02-11T12:47:24.860Z,9.33
2023-02-11T12:50:21.032Z,9.66
2023-02-11T12:52:59.900Z,10.19
2023-02-11T12:55:30.036Z,10.43
2023-02-11T12:57:59.525Z,10.31
2023-02-11T13:00:36.404Z,10.45
2023-02-11T13:03:16.744Z,10.66
2023-02-11T13:05:51.853Z,10.67
2023-02-11T13:08:35.317Z,10.63
2023-02-11T13:11:07.974Z,11.42
2023-02-11T13:13:48.986Z,11.34
2023-02-11T13:16:42.626Z,11.35
2023-02-11T13:19:12.750Z,11.57
2023-02-11T13:21:55.907Z,11.69
2023-02-11T13:24:39.197Z,11.68
2023-02-11T13:27:26.556Z,11.76
2023-02-11T13:30:11.454Z,11.92
2023-02-11T13:33:00.520Z,11.98
2023-02-11T13:35:31.832Z,11.63
2023-02-11T13:38:01.188Z,11.35
2023-02-11T13:40:33.102Z,11.23
2023-02-11T13:43:03.036Z,10.79
2023-02-11T13:45:36.069Z,10.29
2023-02-11T13:48:06.919Z,10.10
2023-02-11T13:50:39.699Z,10.16
2023-02-11T13:53:08.768Z,10.19
2023-02-11T13:55:36.103Z,10.30
2023-02-11T13:58:05.961Z,10.31
2023-02-11T14:00:36.132Z,10.47
2023-02-11T14:03:30.862Z,10.52
2023-02-11T14:06:28.583Z,10.73
2023-02-11T14:09:11.314Z,11.02
2023-02-11T14:11:41.618Z,11.12
2023-02-11T14:14:30.552Z,10.91
2023-02-11T14:17:06.794Z,10.92
2023-02-11T14:19:36.364Z,11.17
2023-02-11T14:22:16.551Z,11.22
2023-02-11T14:24:53.886Z,11.16
2023-02-11T14:27:29.570Z,10.89
2023-02-11T14:30:26.274Z,10.79
2023-02-11T14:33:06.306Z,10.56
2023-02-11T14:35:40.478Z,10.30
2023-02-11T14:38:31.642Z,9.86
2023-02-11T14:41:09.382Z,9.58
2023-02-11T14:43:42.901Z,9.45
2023-02-11T14:46:10.090Z,9.48
2023-02-11T14:48:39.032Z,9.50
2023-02-11T14:51:14.531Z,9.52
2023-02-11T14:53:49.545Z,9.76
2023-02-11T14:56:22.268Z,10.10
2023-02-11T14:58:51.913Z,10.46
2023-02-11T15:01:36.140Z,11.19
2023-02-11T15:04:05.703Z,11.37
2023-02-11T15:06:37.691Z,11.23
2023-02-11T15:09:17.024Z,11.64
2023-02-11T15:11:47.719Z,12.71
2023-02-11T15:14:25.602Z,12.79
2023-02-11T15:16:55.843Z,13.12
2023-02-11T15:19:28.876Z,13.12
2023-02-11T15:21:56.896Z,13.54
2023-02-11T15:24:25.718Z,12.80
2023-02-11T15:26:56.715Z,13.15
2023-02-11T15:29:26.689Z,12.63
2023-02-11T15:32:14.787Z,11.83
2023-02-11T15:34:43.099Z,11.56
2023-02-11T15:37:31.727Z,11.14
2023-02-11T15:40:16.005Z,11.04
2023-02-11T15:42:58.501Z,10.87
2023-02-11T15:45:38.520Z,10.61
2023-02-11T15:48:31.708Z,10.59
2023-02-11T15:51:02.400Z,10.53
2023-02-11T15:53:33.441Z,10.35
2023-02-11T15:56:09.946Z,10.35
2023-02-11T15:58:40.151Z,9.97
2023-02-11T16:01:08.776Z,9.86
2023-02-11T16:03:36.246Z,9.66
2023-02-11T16:06:15.340Z,9.57
2023-02-11T16:08:43.142Z,9.11
2023-02-11T16:11:26.486Z,8.69
2023-02-11T16:13:53.585Z,8.75
2023-02-11T16:16:26.144Z,8.45
2023-02-11T16:19:04.725Z,8.23
2023-02-11T16:21:38.992Z,7.96
2023-02-11T16:24:08.259Z,7.80
2023-02-11T16:26:43.107Z,7.62
2023-02-11T16:29:15.766Z,7.40
2023-02-11T16:31:45.954Z,7.28
2023-02-11T16:34:15.458Z,7.09
2023-02-11T16:36:42.961Z,6.80
2023-02-11T16:39:10.671Z,6.62
2023-02-11T16:41:37.843Z,6.50
2023-02-11T16:44:05.118Z,6.38
2023-02-11T16:46:33.421Z,6.24
2023-02-11T16:49:20.280Z,6.01
2023-02-11T16:51:50.235Z,5.90
2023-02-11T16:54:17.973Z,5.78
2023-02-11T16:56:45.400Z,5.49
2023-02-11T16:59:12.610Z,5.37
2023-02-11T17:01:41.581Z,5.27
2023-02-11T17:04:16.591Z,5.15
2023-02-11T17:06:43.685Z,5.13
2023-02-11T17:09:20.655Z,5.09
2023-02-11T17:11:48.632Z,5.07
2023-02-11T17:14:15.920Z,5.00
2023-02-11T17:16:43.749Z,4.86
2023-02-11T17:19:16.850Z,4.67
2023-02-11T17:21:45.801Z,4.59
2023-02-11T17:24:14.994Z,4.39
2023-02-11T17:26:43.466Z,4.28
2023-02-11T17:29:13.808Z,4.22
2023-02-11T17:31:41.288Z,4.16
2023-02-11T17:34:08.657Z,3.94
2023-02-11T17:36:36.540Z,3.80
2023-02-11T17:39:07.666Z,3.71
2023-02-11T17:41:37.041Z,3.63
2023-02-11T17:44:04.864Z,3.53
2023-02-11T17:46:32.319Z,3.49
2023-02-11T17:48:59.596Z,3.41
2023-02-11T17:51:35.848Z,3.41
2023-02-11T17:54:11.860Z,3.36
2023-02-11T17:56:39.227Z,3.28
2023-02-11T17:59:08.592Z,3.23
2023-02-11T18:01:37.710Z,3.36
2023-02-11T18:04:05.501Z,3.45
2023-02-11T18:06:36.373Z,3.45
2023-02-11T18:09:04.348Z,3.38
2023-02-11T18:11:33.676Z,3.25
2023-02-11T18:14:02.610Z,3.09
2023-02-11T18:16:30.446Z,3.04
2023-02-11T18:18:58.816Z,2.90
2023-02-11T18:21:26.376Z,2.77
2023-02-11T18:23:53.747Z,2.54
2023-02-11T18:26:21.460Z,2.42
2023-02-11T18:28:48.579Z,2.41
2023-02-11T18:31:15.882Z,2.20
2023-02-11T18:33:43.182Z,2.19
2023-02-11T18:36:14.838Z,2.08
2023-02-11T18:38:44.083Z,2.08
2023-02-11T18:41:12.267Z,2.10
2023-02-11T18:43:40.112Z,2.05
2023-02-11T18:46:10.608Z,2.04
2023-02-11T18:48:38.726Z,1.91
2023-02-11T18:51:14.904Z,1.76
2023-02-11T18:53:43.116Z,1.60
2023-02-11T18:56:22.077Z,1.51
2023-02-11T18:58:51.337Z,1.38
2023-02-11T19:01:21.239Z,1.23
2023-02-11T19:03:48.641Z,1.22
2023-02-11T19:06:27.024Z,1.14
2023-02-11T19:08:58.277Z,1.14
2023-02-11T19:11:46.416Z,1.11
2023-02-11T19:14:16.428Z,1.08
2023-02-11T19:16:46.048Z,1.01
2023-02-11T19:19:13.845Z,0.90
2023-02-11T19:21:43.633Z,0.74
2023-02-11T19:24:12.178Z,0.63
2023-02-11T19:26:39.304Z,0.54
2023-02-11T19:29:06.427Z,0.60
2023-02-11T19:31:34.087Z,0.53
2023-02-11T19:34:02.693Z,0.32
2023-02-11T19:36:30.060Z,0.32
2023-02-11T19:39:00.860Z,0.18
2023-02-11T19:41:28.910Z,0.22
2023-02-11T19:43:56.738Z,0.26
2023-02-11T19:46:25.591Z,0.24
2023-02-11T19:48:53.145Z,0.28
2023-02-11T19:51:21.287Z,0.35
2023-02-11T19:53:48.945Z,0.28
2023-02-11T19:56:16.080Z,0.22
2023-02-11T19:58:43.637Z,0.07
2023-02-11T20:01:10.655Z,0.01
2023-02-11T20:03:40.746Z,-0.04
2023-02-11T20:06:13.811Z,-0.04
2023-02-11T20:08:41.253Z,-0.08
2023-02-11T20:11:11.499Z,-0.18
2023-02-11T20:13:39.372Z,-0.21
2023-02-11T20:16:19.683Z,-0.19
2023-02-11T20:18:48.753Z,-0.20
2023-02-11T20:21:24.438Z,-0.15
2023-02-11T20:23:52.407Z,-0.20
2023-02-11T20:26:22.440Z,-0.19
2023-02-11T20:28:50.765Z,-0.15
2023-02-11T20:31:18.682Z,-0.09
2023-02-11T20:33:46.253Z,-0.09
2023-02-11T20:36:17.655Z,-0.23
2023-02-11T20:38:44.934Z,-0.13
2023-02-11T20:41:15.739Z,-0.07
2023-02-11T20:43:48.168Z,-0.19
2023-02-11T20:46:17.612Z,-0.25
2023-02-11T20:48:44.839Z,-0.34
2023-02-11T20:51:17.788Z,-0.39
2023-02-11T20:53:51.204Z,-0.18
2023-02-11T20:56:21.486Z,0.04
2023-02-11T20:58:49.097Z,0.08
2023-02-11T21:01:25.168Z,-0.07
2023-02-11T21:04:02.156Z,-0.18
2023-02-11T21:06:36.958Z,-0.36
2023-02-11T21:09:05.802Z,-0.43
2023-02-11T21:11:33.011Z,-0.41
2023-02-11T21:14:00.436Z,-0.48
2023-02-11T21:16:28.035Z,-0.41
2023-02-11T21:18:55.380Z,-0.31
2023-02-11T21:21:22.527Z,-0.28
2023-02-11T21:23:50.092Z,-0.18
2023-02-11T21:26:17.278Z,-0.24
2023-02-11T21:28:44.529Z,-0.23
2023-02-11T21:31:21.965Z,-0.12
2023-02-11T21:33:50.480Z,-0.06
2023-02-11T21:36:17.850Z,0.01
2023-02-11T21:38:45.041Z,0.11
2023-02-11T21:41:12.238Z,0.06
2023-02-11T21:43:39.291Z,0.00
2023-02-11T21:46:09.732Z,0.03
2023-02-11T21:48:37.001Z,-0.13
2023-02-11T21:51:13.388Z,-0.38
2023-02-11T21:53:40.465Z,-0.54
2023-02-11T21:56:16.912Z,-0.64
2023-02-11T21:58:45.486Z,-0.64
2023-02-11T22:01:33.580Z,-0.65
2023-02-11T22:04:01.575Z,-0.51
2023-02-11T22:06:32.861Z,-0.50
2023-02-11T22:09:06.445Z,-0.55
2023-02-11T22:11:33.643Z,-0.56
2023-02-11T22:14:00.965Z,-0.63
2023-02-11T22:16:30.212Z,-0.66
2023-02-11T22:18:58.861Z,-0.74
2023-02-11T22:21:26.210Z,-0.74
2023-02-11T22:23:54.720Z,-0.72
2023-02-11T22:26:23.304Z,-0.76
2023-02-11T22:28:51.178Z,-0.66
2023-02-11T22:31:21.252Z,-0.60
2023-02-11T22:33:48.864Z,-0.61
2023-02-11T22:36:22.512Z,-0.77
2023-02-11T22:38:50.272Z,-0.89
2023-02-11T22:41:18.317Z,-1.13
2023-02-11T22:43:45.734Z,-1.42
2023-02-11T22:46:16.847Z,-1.70
2023-02-11T22:48:44.021Z,-1.77
2023-02-11T22:51:14.421Z,-1.73
2023-02-11T22:53:43.588Z,-1.71
2023-02-11T22:56:15.381Z,-1.74
2023-02-11T22:58:43.161Z,-1.75
2023-02-11T23:01:11.132Z,-1.65
2023-02-11T23:03:39.104Z,-1.50
2023-02-11T23:06:07.456Z,-1.42
2023-02-11T23:08:34.927Z,-1.38
2023-02-11T23:11:07.631Z,-1.25
2023-02-11T23:13:36.767Z,-1.31
2023-02-11T23:16:06.595Z,-1.27
2023-02-11T23:18:35.446Z,-1.24
2023-02-11T23:21:12.699Z,-1.24
2023-02-11T23:23:40.007Z,-1.35
2023-02-11T23:26:13.686Z,-1.55
2023-02-11T23:28:41.380Z,-1.68
2023-02-11T23:31:20.044Z,-1.69
2023-02-11T23:33:47.764Z,-1.64
2023-02-11T23:36:15.761Z,-1.58
2023-02-11T23:38:43.306Z,-1.56
2023-02-11T23:41:11.255Z,-1.43
2023-02-11T23:43:38.787Z,-1.53
2023-02-11T23:46:06.978Z,-1.57
2023-02-11T23:48:35.962Z,-1.53
2023-02-11T23:51:03.636Z,-1.65
2023-02-11T23:53:30.729Z,-1.74
2023-02-11T23:55:57.837Z,-1.77
2023-02-11T23:58:24.967Z,-1.83
